sensor_id;sensor_type;location;lat;lon;timestamp;P1;durP1;ratioP1;P2;durP2;ratioP2
4698;SDS011;33708;49.466;11.176;2023-01-19T00:01:03;24.60;;;10.10;;
4698;SDS011;33708;49.466;11.176;2023-01-19T00:03:28;25.67;;;10.00;;
4698;SDS011;33708;49.466;11.176;2023-01-19T00:05:54;25.60;;;10.73;;
4698;SDS011;33708;49.466;11.176;2023-01-19T00:08:19;23.60;;;10.33;;
4698;SDS011;33708;49.466;11.176;2023-01-19T00:10:46;22.40;;;10.90;;
4698;SDS011;33708;49.466;11.176;2023-01-19T00:13:13;24.80;;;10.93;;
4698;SDS011;33708;49.466;11.176;2023-01-19T00:15:39;27.50;;;12.17;;
4698;SDS011;33708;49.466;11.176;2023-01-19T00:18:05;25.60;;;12.07;;
4698;SDS011;33708;49.466;11.176;2023-01-19T00:20:30;27.33;;;12.90;;
4698;SDS011;33708;49.466;11.176;2023-01-19T00:22:56;26.30;;;12.87;;
4698;SDS011;33708;49.466;11.176;2023-01-19T00:25:23;29.40;;;12.87;;
4698;SDS011;33708;49.466;11.176;2023-01-19T00:27:48;33.97;;;15.10;;
4698;SDS011;33708;49.466;11.176;2023-01-19T00:30:16;32.33;;;12.67;;
4698;SDS011;33708;49.466;11.176;2023-01-19T00:32:42;31.57;;;14.77;;
4698;SDS011;33708;49.466;11.176;2023-01-19T00:35:08;29.90;;;12.83;;
4698;SDS011;33708;49.466;11.176;2023-01-19T00:37:33;26.67;;;12.03;;
4698;SDS011;33708;49.466;11.176;2023-01-19T00:39:59;26.90;;;12.40;;
4698;SDS011;33708;49.466;11.176;2023-01-19T00:42:25;30.50;;;12.60;;
4698;SDS011;33708;49.466;11.176;2023-01-19T00:45:09;31.97;;;12.20;;
4698;SDS011;33708;49.466;11.176;2023-01-19T00:47:36;27.17;;;11.93;;
4698;SDS011;33708;49.466;11.176;2023-01-19T00:50:03;24.93;;;11.17;;
4698;SDS011;33708;49.466;11.176;2023-01-19T00:52:30;29.50;;;11.73;;
4698;SDS011;33708;49.466;11.176;2023-01-19T00:54:55;29.83;;;12.90;;
4698;SDS011;33708;49.466;11.176;2023-01-19T00:57:21;27.30;;;12.87;;
4698;SDS011;33708;49.466;11.176;2023-01-19T00:59:47;27.13;;;12.03;;
4698;SDS011;33708;49.466;11.176;2023-01-19T01:02:13;24.20;;;11.80;;
4698;SDS011;33708;49.466;11.176;2023-01-19T01:04:39;25.93;;;13.60;;
4698;SDS011;33708;49.466;11.176;2023-01-19T01:07:05;27.83;;;12.70;;
4698;SDS011;33708;49.466;11.176;2023-01-19T01:09:31;32.23;;;12.73;;
4698;SDS011;33708;49.466;11.176;2023-01-19T01:11:56;38.80;;;12.93;;
4698;SDS011;33708;49.466;11.176;2023-01-19T01:14:22;24.40;;;10.73;;
4698;SDS011;33708;49.466;11.176;2023-01-19T01:16:48;20.30;;;10.60;;
4698;SDS011;33708;49.466;11.176;2023-01-19T01:19:14;25.60;;;11.00;;
4698;SDS011;33708;49.466;11.176;2023-01-19T01:21:45;28.20;;;11.93;;
4698;SDS011;33708;49.466;11.176;2023-01-19T01:24:20;34.13;;;11.20;;
4698;SDS011;33708;49.466;11.176;2023-01-19T01:27:16;29.10;;;11.97;;
4698;SDS011;33708;49.466;11.176;2023-01-19T01:33:31;27.13;;;11.70;;
4698;SDS011;33708;49.466;11.176;2023-01-19T01:36:11;26.23;;;12.93;;
4698;SDS011;33708;49.466;11.176;2023-01-19T01:39:21;28.80;;;12.77;;
4698;SDS011;33708;49.466;11.176;2023-01-19T01:42:47;29.40;;;13.30;;
4698;SDS011;33708;49.466;11.176;2023-01-19T01:54:48;26.20;;;12.30;;
4698;SDS011;33708;49.466;11.176;2023-01-19T01:57:22;27.30;;;13.37;;
4698;SDS011;33708;49.466;11.176;2023-01-19T02:00:16;34.97;;;13.57;;
4698;SDS011;33708;49.466;11.176;2023-01-19T02:03:23;27.13;;;13.63;;
4698;SDS011;33708;49.466;11.176;2023-01-19T02:05:50;28.23;;;12.80;;
4698;SDS011;33708;49.466;11.176;2023-01-19T02:08:19;34.53;;;14.50;;
4698;SDS011;33708;49.466;11.176;2023-01-19T02:11:17;28.23;;;13.33;;
4698;SDS011;33708;49.466;11.176;2023-01-19T02:14:02;35.43;;;14.60;;
4698;SDS011;33708;49.466;11.176;2023-01-19T02:16:29;30.37;;;14.30;;
4698;SDS011;33708;49.466;11.176;2023-01-19T02:18:55;29.80;;;13.70;;
4698;SDS011;33708;49.466;11.176;2023-01-19T02:22:04;36.57;;;16.10;;
4698;SDS011;33708;49.466;11.176;2023-01-19T02:24:13;41.53;;;15.10;;
4698;SDS011;33708;49.466;11.176;2023-01-19T02:26:40;32.70;;;14.17;;
4698;SDS011;33708;49.466;11.176;2023-01-19T02:29:10;30.40;;;14.23;;
4698;SDS011;33708;49.466;11.176;2023-01-19T02:31:37;30.57;;;13.83;;
4698;SDS011;33708;49.466;11.176;2023-01-19T02:34:05;27.57;;;13.93;;
4698;SDS011;33708;49.466;11.176;2023-01-19T02:39:05;29.80;;;13.73;;
4698;SDS011;33708;49.466;11.176;2023-01-19T02:41:37;36.03;;;14.87;;
4698;SDS011;33708;49.466;11.176;2023-01-19T02:44:07;31.97;;;15.90;;
4698;SDS011;33708;49.466;11.176;2023-01-19T02:46:35;32.60;;;14.67;;
4698;SDS011;33708;49.466;11.176;2023-01-19T02:49:02;41.37;;;15.30;;
4698;SDS011;33708;49.466;11.176;2023-01-19T02:51:27;32.90;;;13.67;;
4698;SDS011;33708;49.466;11.176;2023-01-19T03:00:16;34.20;;;13.70;;
4698;SDS011;33708;49.466;11.176;2023-01-19T03:15:53;29.97;;;14.60;;
4698;SDS011;33708;49.466;11.176;2023-01-19T03:18:28;28.80;;;13.77;;
4698;SDS011;33708;49.466;11.176;2023-01-19T03:20:58;32.20;;;13.93;;
4698;SDS011;33708;49.466;11.176;2023-01-19T03:23:28;39.50;;;15.30;;
4698;SDS011;33708;49.466;11.176;2023-01-19T03:25:56;33.60;;;13.53;;
4698;SDS011;33708;49.466;11.176;2023-01-19T03:28:24;32.77;;;14.77;;
4698;SDS011;33708;49.466;11.176;2023-01-19T03:30:56;32.47;;;13.07;;
4698;SDS011;33708;49.466;11.176;2023-01-19T03:33:36;35.30;;;15.67;;
4698;SDS011;33708;49.466;11.176;2023-01-19T03:36:07;27.77;;;13.63;;
4698;SDS011;33708;49.466;11.176;2023-01-19T03:38:36;35.93;;;16.23;;
4698;SDS011;33708;49.466;11.176;2023-01-19T03:41:05;30.93;;;16.00;;
4698;SDS011;33708;49.466;11.176;2023-01-19T03:43:35;30.03;;;14.63;;
4698;SDS011;33708;49.466;11.176;2023-01-19T03:46:03;34.47;;;15.60;;
4698;SDS011;33708;49.466;11.176;2023-01-19T03:48:30;39.93;;;15.80;;
4698;SDS011;33708;49.466;11.176;2023-01-19T03:50:56;35.50;;;14.97;;
4698;SDS011;33708;49.466;11.176;2023-01-19T03:53:26;36.30;;;15.97;;
4698;SDS011;33708;49.466;11.176;2023-01-19T03:55:51;35.00;;;14.30;;
4698;SDS011;33708;49.466;11.176;2023-01-19T03:58:18;34.20;;;14.53;;
4698;SDS011;33708;49.466;11.176;2023-01-19T04:00:43;29.50;;;15.30;;
4698;SDS011;33708;49.466;11.176;2023-01-19T04:03:11;33.23;;;16.47;;
4698;SDS011;33708;49.466;11.176;2023-01-19T04:05:38;32.77;;;15.83;;
4698;SDS011;33708;49.466;11.176;2023-01-19T04:08:04;31.90;;;16.20;;
4698;SDS011;33708;49.466;11.176;2023-01-19T04:10:30;35.40;;;15.10;;
4698;SDS011;33708;49.466;11.176;2023-01-19T04:12:56;36.07;;;16.97;;
4698;SDS011;33708;49.466;11.176;2023-01-19T04:15:23;46.20;;;15.70;;
4698;SDS011;33708;49.466;11.176;2023-01-19T04:17:49;30.30;;;15.37;;
4698;SDS011;33708;49.466;11.176;2023-01-19T04:20:14;38.50;;;17.13;;
4698;SDS011;33708;49.466;11.176;2023-01-19T04:22:40;35.27;;;16.53;;
4698;SDS011;33708;49.466;11.176;2023-01-19T04:25:06;37.47;;;16.70;;
4698;SDS011;33708;49.466;11.176;2023-01-19T04:27:33;32.77;;;14.93;;
4698;SDS011;33708;49.466;11.176;2023-01-19T04:30:00;30.20;;;14.47;;
4698;SDS011;33708;49.466;11.176;2023-01-19T04:32:27;27.77;;;13.90;;
4698;SDS011;33708;49.466;11.176;2023-01-19T04:34:54;36.33;;;15.93;;
4698;SDS011;33708;49.466;11.176;2023-01-19T04:37:19;27.10;;;13.60;;
4698;SDS011;33708;49.466;11.176;2023-01-19T04:39:45;35.77;;;15.90;;
4698;SDS011;33708;49.466;11.176;2023-01-19T04:42:11;32.73;;;15.43;;
4698;SDS011;33708;49.466;11.176;2023-01-19T04:44:37;32.13;;;14.60;;
4698;SDS011;33708;49.466;11.176;2023-01-19T04:47:02;28.10;;;14.30;;
4698;SDS011;33708;49.466;11.176;2023-01-19T04:49:28;29.57;;;14.07;;
4698;SDS011;33708;49.466;11.176;2023-01-19T04:51:54;31.83;;;14.70;;
4698;SDS011;33708;49.466;11.176;2023-01-19T04:54:20;33.40;;;14.53;;
4698;SDS011;33708;49.466;11.176;2023-01-19T04:56:45;35.27;;;15.00;;
4698;SDS011;33708;49.466;11.176;2023-01-19T04:59:11;34.63;;;15.30;;
4698;SDS011;33708;49.466;11.176;2023-01-19T05:01:37;34.27;;;13.60;;
4698;SDS011;33708;49.466;11.176;2023-01-19T05:04:03;32.47;;;13.93;;
4698;SDS011;33708;49.466;11.176;2023-01-19T05:06:31;32.10;;;14.93;;
4698;SDS011;33708;49.466;11.176;2023-01-19T05:08:57;28.00;;;13.97;;
4698;SDS011;33708;49.466;11.176;2023-01-19T05:11:23;33.17;;;14.20;;
4698;SDS011;33708;49.466;11.176;2023-01-19T05:13:48;32.07;;;15.80;;
4698;SDS011;33708;49.466;11.176;2023-01-19T05:16:14;39.57;;;16.97;;
4698;SDS011;33708;49.466;11.176;2023-01-19T05:18:40;32.17;;;14.70;;
4698;SDS011;33708;49.466;11.176;2023-01-19T05:21:05;32.50;;;16.30;;
4698;SDS011;33708;49.466;11.176;2023-01-19T05:23:32;38.40;;;17.03;;
4698;SDS011;33708;49.466;11.176;2023-01-19T05:25:58;33.70;;;16.40;;
4698;SDS011;33708;49.466;11.176;2023-01-19T05:28:26;30.47;;;15.77;;
4698;SDS011;33708;49.466;11.176;2023-01-19T05:30:52;30.07;;;13.67;;
4698;SDS011;33708;49.466;11.176;2023-01-19T05:33:19;31.43;;;14.60;;
4698;SDS011;33708;49.466;11.176;2023-01-19T05:35:45;31.03;;;14.03;;
4698;SDS011;33708;49.466;11.176;2023-01-19T05:38:14;25.70;;;13.50;;
4698;SDS011;33708;49.466;11.176;2023-01-19T05:40:40;34.27;;;15.03;;
4698;SDS011;33708;49.466;11.176;2023-01-19T05:43:05;26.63;;;13.10;;
4698;SDS011;33708;49.466;11.176;2023-01-19T05:45:31;31.70;;;15.13;;
4698;SDS011;33708;49.466;11.176;2023-01-19T05:47:57;34.57;;;15.37;;
4698;SDS011;33708;49.466;11.176;2023-01-19T05:50:23;30.63;;;14.33;;
4698;SDS011;33708;49.466;11.176;2023-01-19T05:52:49;33.53;;;13.83;;
4698;SDS011;33708;49.466;11.176;2023-01-19T05:55:17;27.87;;;14.20;;
4698;SDS011;33708;49.466;11.176;2023-01-19T05:57:43;29.20;;;13.20;;
4698;SDS011;33708;49.466;11.176;2023-01-19T06:00:09;29.97;;;13.30;;
4698;SDS011;33708;49.466;11.176;2023-01-19T06:02:35;29.27;;;13.70;;
4698;SDS011;33708;49.466;11.176;2023-01-19T06:05:00;25.87;;;12.53;;
4698;SDS011;33708;49.466;11.176;2023-01-19T06:07:26;26.53;;;11.40;;
4698;SDS011;33708;49.466;11.176;2023-01-19T06:09:52;23.00;;;11.10;;
4698;SDS011;33708;49.466;11.176;2023-01-19T06:12:18;32.23;;;13.43;;
4698;SDS011;33708;49.466;11.176;2023-01-19T06:14:46;32.37;;;14.70;;
4698;SDS011;33708;49.466;11.176;2023-01-19T06:17:12;32.53;;;14.70;;
4698;SDS011;33708;49.466;11.176;2023-01-19T06:19:37;35.90;;;17.50;;
4698;SDS011;33708;49.466;11.176;2023-01-19T06:22:03;33.13;;;14.00;;
4698;SDS011;33708;49.466;11.176;2023-01-19T06:24:29;30.50;;;15.67;;
4698;SDS011;33708;49.466;11.176;2023-01-19T06:26:54;25.27;;;12.93;;
4698;SDS011;33708;49.466;11.176;2023-01-19T06:29:20;30.30;;;14.43;;
4698;SDS011;33708;49.466;11.176;2023-01-19T06:31:46;29.70;;;13.87;;
4698;SDS011;33708;49.466;11.176;2023-01-19T06:34:12;30.10;;;12.73;;
4698;SDS011;33708;49.466;11.176;2023-01-19T06:36:37;30.63;;;15.73;;
4698;SDS011;33708;49.466;11.176;2023-01-19T06:39:03;32.70;;;15.70;;
4698;SDS011;33708;49.466;11.176;2023-01-19T06:41:30;32.03;;;14.80;;
4698;SDS011;33708;49.466;11.176;2023-01-19T06:43:57;31.10;;;13.80;;
4698;SDS011;33708;49.466;11.176;2023-01-19T06:46:22;29.50;;;14.67;;
4698;SDS011;33708;49.466;11.176;2023-01-19T06:48:48;28.13;;;14.20;;
4698;SDS011;33708;49.466;11.176;2023-01-19T06:51:14;29.97;;;14.63;;
4698;SDS011;33708;49.466;11.176;2023-01-19T06:53:39;29.57;;;14.30;;
4698;SDS011;33708;49.466;11.176;2023-01-19T06:56:05;24.80;;;12.83;;
4698;SDS011;33708;49.466;11.176;2023-01-19T06:58:32;27.37;;;11.90;;
4698;SDS011;33708;49.466;11.176;2023-01-19T07:01:02;34.43;;;13.03;;
4698;SDS011;33708;49.466;11.176;2023-01-19T07:03:28;26.97;;;11.73;;
4698;SDS011;33708;49.466;11.176;2023-01-19T07:05:54;26.20;;;12.17;;
4698;SDS011;33708;49.466;11.176;2023-01-19T07:08:21;25.33;;;12.50;;
4698;SDS011;33708;49.466;11.176;2023-01-19T07:10:47;24.10;;;12.03;;
4698;SDS011;33708;49.466;11.176;2023-01-19T07:13:13;23.90;;;11.70;;
4698;SDS011;33708;49.466;11.176;2023-01-19T07:15:39;26.03;;;12.57;;
4698;SDS011;33708;49.466;11.176;2023-01-19T07:18:05;29.83;;;13.67;;
4698;SDS011;33708;49.466;11.176;2023-01-19T07:20:32;29.30;;;13.60;;
4698;SDS011;33708;49.466;11.176;2023-01-19T07:22:58;26.23;;;13.60;;
4698;SDS011;33708;49.466;11.176;2023-01-19T07:25:24;30.67;;;14.57;;
4698;SDS011;33708;49.466;11.176;2023-01-19T07:27:51;30.87;;;15.33;;
4698;SDS011;33708;49.466;11.176;2023-01-19T07:30:20;35.60;;;15.60;;
4698;SDS011;33708;49.466;11.176;2023-01-19T07:32:45;27.50;;;14.20;;
4698;SDS011;33708;49.466;11.176;2023-01-19T07:35:11;25.67;;;13.67;;
4698;SDS011;33708;49.466;11.176;2023-01-19T07:37:36;26.33;;;12.43;;
4698;SDS011;33708;49.466;11.176;2023-01-19T07:40:02;29.17;;;14.00;;
4698;SDS011;33708;49.466;11.176;2023-01-19T07:42:28;28.10;;;13.00;;
4698;SDS011;33708;49.466;11.176;2023-01-19T07:44:54;29.13;;;13.67;;
4698;SDS011;33708;49.466;11.176;2023-01-19T07:47:19;25.77;;;11.97;;
4698;SDS011;33708;49.466;11.176;2023-01-19T07:49:45;28.07;;;12.50;;
4698;SDS011;33708;49.466;11.176;2023-01-19T07:52:11;26.30;;;12.40;;
4698;SDS011;33708;49.466;11.176;2023-01-19T07:54:36;26.83;;;12.97;;
4698;SDS011;33708;49.466;11.176;2023-01-19T07:57:02;22.40;;;12.63;;
4698;SDS011;33708;49.466;11.176;2023-01-19T07:59:28;27.80;;;13.03;;
4698;SDS011;33708;49.466;11.176;2023-01-19T08:01:55;23.93;;;12.23;;
4698;SDS011;33708;49.466;11.176;2023-01-19T08:04:23;26.90;;;12.23;;
4698;SDS011;33708;49.466;11.176;2023-01-19T08:06:51;23.70;;;11.90;;
4698;SDS011;33708;49.466;11.176;2023-01-19T08:09:17;23.80;;;13.27;;
4698;SDS011;33708;49.466;11.176;2023-01-19T08:11:43;23.80;;;12.73;;
4698;SDS011;33708;49.466;11.176;2023-01-19T08:14:09;25.47;;;12.53;;
4698;SDS011;33708;49.466;11.176;2023-01-19T08:16:35;31.43;;;13.40;;
4698;SDS011;33708;49.466;11.176;2023-01-19T08:19:01;25.73;;;13.90;;
4698;SDS011;33708;49.466;11.176;2023-01-19T08:21:27;25.33;;;13.20;;
4698;SDS011;33708;49.466;11.176;2023-01-19T08:23:53;20.57;;;11.80;;
4698;SDS011;33708;49.466;11.176;2023-01-19T08:26:20;21.90;;;12.67;;
4698;SDS011;33708;49.466;11.176;2023-01-19T08:28:51;24.47;;;11.90;;
4698;SDS011;33708;49.466;11.176;2023-01-19T08:31:17;21.57;;;11.47;;
4698;SDS011;33708;49.466;11.176;2023-01-19T08:33:43;25.13;;;14.20;;
4698;SDS011;33708;49.466;11.176;2023-01-19T08:36:09;22.23;;;12.93;;
4698;SDS011;33708;49.466;11.176;2023-01-19T08:38:35;24.83;;;12.53;;
4698;SDS011;33708;49.466;11.176;2023-01-19T08:41:00;21.97;;;12.40;;
4698;SDS011;33708;49.466;11.176;2023-01-19T08:43:27;19.87;;;11.07;;
4698;SDS011;33708;49.466;11.176;2023-01-19T08:45:53;20.13;;;11.37;;
4698;SDS011;33708;49.466;11.176;2023-01-19T08:48:20;23.23;;;11.73;;
4698;SDS011;33708;49.466;11.176;2023-01-19T08:50:47;22.67;;;12.63;;
4698;SDS011;33708;49.466;11.176;2023-01-19T08:53:14;22.63;;;12.17;;
4698;SDS011;33708;49.466;11.176;2023-01-19T08:55:40;27.43;;;13.13;;
4698;SDS011;33708;49.466;11.176;2023-01-19T08:58:06;20.03;;;11.40;;
4698;SDS011;33708;49.466;11.176;2023-01-19T09:00:36;22.07;;;10.73;;
4698;SDS011;33708;49.466;11.176;2023-01-19T09:03:06;22.30;;;13.00;;
4698;SDS011;33708;49.466;11.176;2023-01-19T09:05:34;23.40;;;12.20;;
4698;SDS011;33708;49.466;11.176;2023-01-19T09:08:03;24.90;;;13.20;;
4698;SDS011;33708;49.466;11.176;2023-01-19T09:10:32;20.63;;;11.77;;
4698;SDS011;33708;49.466;11.176;2023-01-19T09:13:04;24.97;;;13.10;;
4698;SDS011;33708;49.466;11.176;2023-01-19T09:15:33;24.50;;;11.70;;
4698;SDS011;33708;49.466;11.176;2023-01-19T09:18:00;20.73;;;12.07;;
4698;SDS011;33708;49.466;11.176;2023-01-19T09:20:26;22.37;;;11.83;;
4698;SDS011;33708;49.466;11.176;2023-01-19T09:22:55;29.10;;;11.53;;
4698;SDS011;33708;49.466;11.176;2023-01-19T09:25:21;21.17;;;12.60;;
4698;SDS011;33708;49.466;11.176;2023-01-19T09:27:47;26.47;;;13.77;;
4698;SDS011;33708;49.466;11.176;2023-01-19T09:30:12;20.03;;;11.30;;
4698;SDS011;33708;49.466;11.176;2023-01-19T09:32:38;27.40;;;12.40;;
4698;SDS011;33708;49.466;11.176;2023-01-19T09:35:04;21.53;;;11.77;;
4698;SDS011;33708;49.466;11.176;2023-01-19T09:37:30;25.60;;;11.60;;
4698;SDS011;33708;49.466;11.176;2023-01-19T09:39:56;22.00;;;12.70;;
4698;SDS011;33708;49.466;11.176;2023-01-19T09:45:15;28.03;;;11.70;;
4698;SDS011;33708;49.466;11.176;2023-01-19T09:47:45;24.33;;;11.07;;
4698;SDS011;33708;49.466;11.176;2023-01-19T09:50:46;19.70;;;11.20;;
4698;SDS011;33708;49.466;11.176;2023-01-19T09:53:13;20.70;;;11.97;;
4698;SDS011;33708;49.466;11.176;2023-01-19T09:55:45;21.17;;;11.47;;
4698;SDS011;33708;49.466;11.176;2023-01-19T09:58:14;21.97;;;11.53;;
4698;SDS011;33708;49.466;11.176;2023-01-19T10:00:43;20.27;;;11.27;;
4698;SDS011;33708;49.466;11.176;2023-01-19T10:03:28;23.33;;;9.90;;
4698;SDS011;33708;49.466;11.176;2023-01-19T10:05:57;22.80;;;9.90;;
4698;SDS011;33708;49.466;11.176;2023-01-19T10:08:36;19.93;;;9.33;;
4698;SDS011;33708;49.466;11.176;2023-01-19T10:14:08;16.87;;;8.70;;
4698;SDS011;33708;49.466;11.176;2023-01-19T10:19:34;24.33;;;10.97;;
4698;SDS011;33708;49.466;11.176;2023-01-19T10:22:07;23.03;;;10.40;;
4698;SDS011;33708;49.466;11.176;2023-01-19T10:24:44;17.90;;;9.10;;
4698;SDS011;33708;49.466;11.176;2023-01-19T10:27:15;16.73;;;8.17;;
4698;SDS011;33708;49.466;11.176;2023-01-19T10:29:42;20.47;;;9.70;;
4698;SDS011;33708;49.466;11.176;2023-01-19T10:32:10;18.60;;;8.80;;
4698;SDS011;33708;49.466;11.176;2023-01-19T10:34:41;19.73;;;8.20;;
4698;SDS011;33708;49.466;11.176;2023-01-19T10:37:50;19.77;;;8.30;;
4698;SDS011;33708;49.466;11.176;2023-01-19T10:42:38;22.90;;;8.30;;
4698;SDS011;33708;49.466;11.176;2023-01-19T10:47:44;15.80;;;7.20;;
4698;SDS011;33708;49.466;11.176;2023-01-19T10:50:21;13.93;;;6.90;;
4698;SDS011;33708;49.466;11.176;2023-01-19T10:52:50;16.23;;;8.03;;
4698;SDS011;33708;49.466;11.176;2023-01-19T10:55:30;18.63;;;8.43;;
4698;SDS011;33708;49.466;11.176;2023-01-19T11:00:53;15.90;;;7.30;;
4698;SDS011;33708;49.466;11.176;2023-01-19T11:03:22;16.10;;;7.10;;
4698;SDS011;33708;49.466;11.176;2023-01-19T11:08:39;15.10;;;6.30;;
4698;SDS011;33708;49.466;11.176;2023-01-19T11:11:05;16.30;;;6.80;;
4698;SDS011;33708;49.466;11.176;2023-01-19T11:13:33;20.10;;;7.20;;
4698;SDS011;33708;49.466;11.176;2023-01-19T11:16:24;17.37;;;7.60;;
4698;SDS011;33708;49.466;11.176;2023-01-19T11:18:55;17.60;;;6.90;;
4698;SDS011;33708;49.466;11.176;2023-01-19T11:21:25;16.93;;;7.63;;
4698;SDS011;33708;49.466;11.176;2023-01-19T11:23:54;16.83;;;7.90;;
4698;SDS011;33708;49.466;11.176;2023-01-19T11:26:29;16.80;;;7.20;;
4698;SDS011;33708;49.466;11.176;2023-01-19T11:28:58;22.73;;;7.77;;
4698;SDS011;33708;49.466;11.176;2023-01-19T11:33:54;33.20;;;7.67;;
4698;SDS011;33708;49.466;11.176;2023-01-19T11:36:24;25.90;;;10.77;;
4698;SDS011;33708;49.466;11.176;2023-01-19T11:39:43;15.57;;;6.67;;
4698;SDS011;33708;49.466;11.176;2023-01-19T11:41:54;16.77;;;6.70;;
4698;SDS011;33708;49.466;11.176;2023-01-19T11:44:29;17.47;;;6.33;;
4698;SDS011;33708;49.466;11.176;2023-01-19T11:47:05;14.17;;;6.27;;
4698;SDS011;33708;49.466;11.176;2023-01-19T11:50:06;12.97;;;5.30;;
4698;SDS011;33708;49.466;11.176;2023-01-19T11:52:44;16.17;;;6.03;;
4698;SDS011;33708;49.466;11.176;2023-01-19T11:57:59;13.70;;;5.00;;
4698;SDS011;33708;49.466;11.176;2023-01-19T12:00:37;12.93;;;6.53;;
4698;SDS011;33708;49.466;11.176;2023-01-19T12:06:07;15.23;;;5.13;;
4698;SDS011;33708;49.466;11.176;2023-01-19T12:11:07;16.93;;;5.30;;
4698;SDS011;33708;49.466;11.176;2023-01-19T12:13:36;14.87;;;5.37;;
4698;SDS011;33708;49.466;11.176;2023-01-19T12:16:12;13.13;;;5.33;;
4698;SDS011;33708;49.466;11.176;2023-01-19T12:18:47;10.93;;;4.90;;
4698;SDS011;33708;49.466;11.176;2023-01-19T12:21:19;14.00;;;5.40;;
4698;SDS011;33708;49.466;11.176;2023-01-19T12:26:27;12.53;;;4.30;;
4698;SDS011;33708;49.466;11.176;2023-01-19T12:29:05;14.57;;;4.53;;
4698;SDS011;33708;49.466;11.176;2023-01-19T12:31:31;14.17;;;4.20;;
4698;SDS011;33708;49.466;11.176;2023-01-19T12:37:03;15.37;;;5.23;;
4698;SDS011;33708;49.466;11.176;2023-01-19T12:39:31;11.93;;;4.40;;
4698;SDS011;33708;49.466;11.176;2023-01-19T12:42:06;12.87;;;5.57;;
4698;SDS011;33708;49.466;11.176;2023-01-19T12:44:38;14.40;;;4.80;;
4698;SDS011;33708;49.466;11.176;2023-01-19T12:52:22;15.33;;;5.90;;
4698;SDS011;33708;49.466;11.176;2023-01-19T12:59:54;15.97;;;6.63;;
4698;SDS011;33708;49.466;11.176;2023-01-19T13:13:25;12.80;;;5.50;;
4698;SDS011;33708;49.466;11.176;2023-01-19T13:15:53;12.30;;;5.60;;
4698;SDS011;33708;49.466;11.176;2023-01-19T13:18:20;13.40;;;5.00;;
4698;SDS011;33708;49.466;11.176;2023-01-19T13:20:56;12.70;;;4.93;;
4698;SDS011;33708;49.466;11.176;2023-01-19T13:23:25;15.37;;;5.40;;
4698;SDS011;33708;49.466;11.176;2023-01-19T13:26:00;12.70;;;4.73;;
4698;SDS011;33708;49.466;11.176;2023-01-19T13:28:37;13.80;;;4.60;;
4698;SDS011;33708;49.466;11.176;2023-01-19T13:31:05;17.63;;;5.00;;
4698;SDS011;33708;49.466;11.176;2023-01-19T13:33:53;20.83;;;5.27;;
4698;SDS011;33708;49.466;11.176;2023-01-19T13:36:23;12.20;;;5.00;;
4698;SDS011;33708;49.466;11.176;2023-01-19T13:38:51;13.50;;;4.83;;
4698;SDS011;33708;49.466;11.176;2023-01-19T13:41:19;13.30;;;4.80;;
4698;SDS011;33708;49.466;11.176;2023-01-19T13:43:50;13.00;;;4.77;;
4698;SDS011;33708;49.466;11.176;2023-01-19T13:46:31;15.00;;;5.53;;
4698;SDS011;33708;49.466;11.176;2023-01-19T13:49:09;14.57;;;5.37;;
4698;SDS011;33708;49.466;11.176;2023-01-19T13:51:42;12.13;;;4.93;;
4698;SDS011;33708;49.466;11.176;2023-01-19T13:54:13;15.60;;;5.60;;
4698;SDS011;33708;49.466;11.176;2023-01-19T13:56:45;16.87;;;5.30;;
4698;SDS011;33708;49.466;11.176;2023-01-19T13:59:12;15.10;;;5.30;;
4698;SDS011;33708;49.466;11.176;2023-01-19T14:01:42;15.27;;;5.50;;
4698;SDS011;33708;49.466;11.176;2023-01-19T14:06:59;18.90;;;5.47;;
4698;SDS011;33708;49.466;11.176;2023-01-19T14:09:28;14.70;;;5.80;;
4698;SDS011;33708;49.466;11.176;2023-01-19T14:14:29;13.90;;;6.03;;
4698;SDS011;33708;49.466;11.176;2023-01-19T14:16:55;15.30;;;6.10;;
4698;SDS011;33708;49.466;11.176;2023-01-19T14:19:21;15.27;;;6.33;;
4698;SDS011;33708;49.466;11.176;2023-01-19T14:21:56;13.60;;;5.80;;
4698;SDS011;33708;49.466;11.176;2023-01-19T14:24:23;18.07;;;6.87;;
4698;SDS011;33708;49.466;11.176;2023-01-19T14:26:53;14.10;;;6.43;;
4698;SDS011;33708;49.466;11.176;2023-01-19T14:29:43;14.47;;;6.23;;
4698;SDS011;33708;49.466;11.176;2023-01-19T14:32:19;14.03;;;6.00;;
4698;SDS011;33708;49.466;11.176;2023-01-19T14:37:29;14.60;;;6.37;;
4698;SDS011;33708;49.466;11.176;2023-01-19T14:42:43;12.30;;;5.30;;
4698;SDS011;33708;49.466;11.176;2023-01-19T14:45:28;14.30;;;5.13;;
4698;SDS011;33708;49.466;11.176;2023-01-19T14:50:37;15.83;;;5.80;;
4698;SDS011;33708;49.466;11.176;2023-01-19T14:53:21;11.77;;;5.10;;
4698;SDS011;33708;49.466;11.176;2023-01-19T14:55:50;13.37;;;4.87;;
4698;SDS011;33708;49.466;11.176;2023-01-19T14:58:17;14.37;;;5.20;;
4698;SDS011;33708;49.466;11.176;2023-01-19T15:00:46;15.33;;;5.20;;
4698;SDS011;33708;49.466;11.176;2023-01-19T15:03:28;13.60;;;5.53;;
4698;SDS011;33708;49.466;11.176;2023-01-19T15:05:55;13.20;;;6.00;;
4698;SDS011;33708;49.466;11.176;2023-01-19T15:10:51;20.73;;;7.90;;
4698;SDS011;33708;49.466;11.176;2023-01-19T15:13:20;19.60;;;7.60;;
4698;SDS011;33708;49.466;11.176;2023-01-19T15:15:47;17.40;;;6.80;;
4698;SDS011;33708;49.466;11.176;2023-01-19T15:18:15;14.30;;;5.57;;
4698;SDS011;33708;49.466;11.176;2023-01-19T15:20:44;14.70;;;5.83;;
4698;SDS011;33708;49.466;11.176;2023-01-19T15:23:10;14.00;;;5.80;;
4698;SDS011;33708;49.466;11.176;2023-01-19T15:25:36;14.40;;;6.40;;
4698;SDS011;33708;49.466;11.176;2023-01-19T15:28:09;15.07;;;5.73;;
4698;SDS011;33708;49.466;11.176;2023-01-19T15:30:36;16.00;;;5.97;;
4698;SDS011;33708;49.466;11.176;2023-01-19T15:33:02;16.40;;;6.07;;
4698;SDS011;33708;49.466;11.176;2023-01-19T15:35:28;12.17;;;5.70;;
4698;SDS011;33708;49.466;11.176;2023-01-19T15:37:54;14.00;;;6.73;;
4698;SDS011;33708;49.466;11.176;2023-01-19T15:40:20;14.57;;;6.43;;
4698;SDS011;33708;49.466;11.176;2023-01-19T15:42:47;16.90;;;6.40;;
4698;SDS011;33708;49.466;11.176;2023-01-19T15:47:42;12.93;;;5.63;;
4698;SDS011;33708;49.466;11.176;2023-01-19T15:50:07;14.80;;;6.30;;
4698;SDS011;33708;49.466;11.176;2023-01-19T15:52:33;15.40;;;6.40;;
4698;SDS011;33708;49.466;11.176;2023-01-19T15:54:59;12.70;;;5.40;;
4698;SDS011;33708;49.466;11.176;2023-01-19T15:57:25;20.50;;;6.77;;
4698;SDS011;33708;49.466;11.176;2023-01-19T15:59:50;15.67;;;6.30;;
4698;SDS011;33708;49.466;11.176;2023-01-19T16:02:16;14.03;;;6.27;;
4698;SDS011;33708;49.466;11.176;2023-01-19T16:04:41;12.83;;;5.63;;
4698;SDS011;33708;49.466;11.176;2023-01-19T16:07:07;14.97;;;7.03;;
4698;SDS011;33708;49.466;11.176;2023-01-19T16:09:32;16.97;;;6.90;;
4698;SDS011;33708;49.466;11.176;2023-01-19T16:11:58;15.80;;;7.07;;
4698;SDS011;33708;49.466;11.176;2023-01-19T16:14:24;15.43;;;6.50;;
4698;SDS011;33708;49.466;11.176;2023-01-19T16:16:49;15.93;;;6.67;;
4698;SDS011;33708;49.466;11.176;2023-01-19T16:19:15;19.40;;;6.77;;
4698;SDS011;33708;49.466;11.176;2023-01-19T16:21:41;17.03;;;7.70;;
4698;SDS011;33708;49.466;11.176;2023-01-19T16:24:07;16.37;;;8.53;;
4698;SDS011;33708;49.466;11.176;2023-01-19T16:26:33;17.90;;;9.20;;
4698;SDS011;33708;49.466;11.176;2023-01-19T16:29:04;27.13;;;10.37;;